Searsmont, Maine
Current Conditions -  °F | °C
As of 12:55 PM on Sunday 21 Dec 2014 (Local Time) from KRKD Reporting Station
Broken Clouds Broken Clouds  
Wind Chill: -1°   Ceiling: 5000
Heat Index:   Visibility: 10mi
Dew Point: -2°   Wind: 5mph
Humidity: 81%   Direction: 20°NNE
Pressure: 30.31"   Gusts: NA
Location:  44.36°N, 69.2°W
Report Text: KRKD 211755Z AUTO 02004KT 10SM SCT044 BKN050 01/M02 A3031 RMK AO1 10010 21020 57010
Loading
Personal Weather Stations






























Interactive Weather Map New forecast layout! Learn more

10-Day Weather Forecast

Advertisements
Track Severe Weather on mobile